Time;durP1;ratioP1;P1;durP2;ratioP2;P2;SDS_P1;SDS_P2;PMS_P1;PMS_P2;Temp;Humidity;BMP_temperature;BMP_pressure;BME280_temperature;BME280_humidity;BME280_pressure;Samples;Min_cycle;Max_cycle;Signal;HPM_P1;HPM_P2
2022/07/20 00:02:25;;;;;;;7.22;3.60;;;22.40;49.80;;;;;;5031122;28;20061;-66
2022/07/20 00:04:51;;;;;;;6.43;3.47;;;22.40;50.00;;;;;;5031443;28;20033;-67
2022/07/20 00:07:17;;;;;;;5.45;2.97;;;22.40;50.00;;;;;;5030632;28;20026;-66
2022/07/20 00:12:28;;;;;;;6.28;3.78;;;22.40;49.70;;;;;;5031225;28;20040;-66
2022/07/20 00:14:54;;;;;;;11.02;5.10;;;22.30;50.00;;;;;;5033590;28;20030;-65
2022/07/20 00:17:20;;;;;;;9.88;3.67;;;22.20;50.10;;;;;;5016459;28;20025;-66
2022/07/20 00:19:45;;;;;;;6.90;4.15;;;22.10;50.80;;;;;;5035080;28;20545;-65
2022/07/20 00:22:11;;;;;;;8.23;4.07;;;22.10;50.60;;;;;;5034846;28;20101;-66
2022/07/20 00:24:37;;;;;;;6.90;3.47;;;22.10;50.40;;;;;;5034958;28;20403;-66
2022/07/20 00:27:02;;;;;;;7.50;3.95;;;22.10;50.60;;;;;;5016659;28;20071;-65
2022/07/20 00:29:28;;;;;;;9.32;3.05;;;22.10;50.80;;;;;;5034797;28;20526;-65
2022/07/20 00:31:54;;;;;;;6.65;3.50;;;22.10;51.10;;;;;;5034413;28;20506;-65
2022/07/20 00:34:20;;;;;;;9.23;3.50;;;22.00;51.30;;;;;;5034922;28;20036;-65
2022/07/20 00:36:46;;;;;;;4.60;3.33;;;22.00;49.70;;;;;;5034976;28;20104;-64
2022/07/20 00:39:11;;;;;;;7.38;3.60;;;22.00;49.90;;;;;;5034558;28;20025;-66
2022/07/20 00:41:37;;;;;;;10.20;3.90;;;22.00;50.00;;;;;;5034728;28;20033;-66
2022/07/20 00:44:08;;;;;;;6.82;3.47;;;22.00;50.00;;;;;;5034851;28;20037;-65
2022/07/20 00:46:40;;;;;;;3.90;3.05;;;22.10;49.90;;;;;;5034594;28;20034;-64
2022/07/20 00:49:07;;;;;;;7.68;3.50;;;22.10;49.30;;;;;;5032627;28;20037;-65
2022/07/20 00:51:34;;;;;;;6.18;3.00;;;22.20;48.60;;;;;;5034372;28;20559;-65
2022/07/20 00:54:00;;;;;;;7.65;3.20;;;22.20;49.50;;;;;;5034360;28;20030;-67
2022/07/20 00:56:25;;;;;;;5.22;3.15;;;22.20;48.60;;;;;;5034478;28;20100;-66
2022/07/20 00:58:51;;;;;;;7.93;3.53;;;22.20;49.20;;;;;;5033565;28;20497;-65
2022/07/20 01:01:17;;;;;;;8.23;3.40;;;22.20;48.60;;;;;;5034194;28;20204;-66
2022/07/20 01:03:44;;;;;;;9.10;3.05;;;22.10;50.60;;;;;;5034182;28;20103;-66
2022/07/20 01:06:10;;;;;;;7.00;3.20;;;22.00;51.10;;;;;;5034424;28;20029;-65
2022/07/20 01:08:36;;;;;;;9.48;4.28;;;22.00;51.20;;;;;;5033580;28;20018;-65
2022/07/20 01:11:02;;;;;;;3.70;2.78;;;21.90;51.40;;;;;;5016579;28;20123;-65
2022/07/20 01:13:28;;;;;;;6.55;3.70;;;21.80;51.30;;;;;;5033870;28;20021;-66
2022/07/20 01:15:54;;;;;;;6.85;3.90;;;21.70;51.10;;;;;;5033967;28;20026;-65
2022/07/20 01:18:19;;;;;;;7.32;3.42;;;21.70;51.90;;;;;;5031796;28;20087;-66
2022/07/20 01:20:47;;;;;;;6.05;3.22;;;21.50;52.30;;;;;;5034129;28;20022;-66
2022/07/20 01:23:17;;;;;;;7.60;3.28;;;21.50;52.30;;;;;;5033885;28;20075;-66
2022/07/20 01:25:44;;;;;;;4.93;2.92;;;21.50;52.60;;;;;;5033778;28;20037;-66
2022/07/20 01:28:13;;;;;;;6.68;3.60;;;21.50;52.80;;;;;;5032934;28;20026;-66
2022/07/20 01:30:39;;;;;;;7.72;3.30;;;21.40;52.00;;;;;;5033842;28;20025;-65
2022/07/20 01:33:05;;;;;;;5.40;3.42;;;21.40;50.90;;;;;;5033553;28;20041;-65
2022/07/20 01:35:31;;;;;;;8.32;3.67;;;21.40;52.10;;;;;;5033934;28;20109;-65
2022/07/20 01:37:56;;;;;;;6.80;3.22;;;21.50;50.40;;;;;;5032859;28;20104;-66
2022/07/20 01:40:22;;;;;;;12.35;3.63;;;21.50;50.90;;;;;;5033624;28;20064;-66
2022/07/20 01:42:48;;;;;;;4.93;3.10;;;21.50;50.40;;;;;;5033556;28;20108;-66
2022/07/20 01:45:14;;;;;;;8.55;3.70;;;21.60;50.40;;;;;;5033896;28;20030;-66
2022/07/20 01:47:39;;;;;;;8.05;3.20;;;21.50;51.00;;;;;;5033004;28;20026;-66
2022/07/20 01:50:06;;;;;;;10.10;3.30;;;21.50;51.30;;;;;;5033483;28;20021;-66
2022/07/20 01:52:31;;;;;;;9.05;3.67;;;21.50;51.50;;;;;;5033525;28;20449;-66
2022/07/20 01:54:57;;;;;;;10.85;3.50;;;21.40;51.50;;;;;;5033428;28;20097;-66
2022/07/20 01:57:23;;;;;;;12.05;3.55;;;21.40;51.50;;;;;;5015102;28;20387;-65
2022/07/20 01:59:48;;;;;;;6.90;3.55;;;21.50;51.70;;;;;;5032731;28;20061;-65
2022/07/20 02:02:14;;;;;;;11.32;3.30;;;21.40;52.20;;;;;;5033452;28;20030;-65
2022/07/20 02:04:40;;;;;;;7.30;3.75;;;21.40;51.80;;;;;;5015482;28;20033;-66
2022/07/20 02:07:05;;;;;;;7.75;3.55;;;21.30;52.10;;;;;;5033099;28;20038;-67
2022/07/20 02:09:32;;;;;;;4.68;3.70;;;21.20;52.30;;;;;;5034036;28;20025;-65
2022/07/20 02:11:57;;;;;;;8.50;3.00;;;21.20;52.40;;;;;;5033964;28;20036;-65
2022/07/20 02:14:23;;;;;;;7.57;3.50;;;21.10;52.70;;;;;;5032881;28;20100;-64
2022/07/20 02:16:49;;;;;;;8.27;3.35;;;21.10;53.10;;;;;;5033228;28;20023;-65
2022/07/20 02:19:14;;;;;;;5.05;3.13;;;21.10;53.60;;;;;;5032409;28;20105;-67
2022/07/20 02:21:40;;;;;;;17.27;3.53;;;21.00;53.10;;;;;;5033174;28;20021;-65
2022/07/20 02:24:06;;;;;;;9.30;3.92;;;21.00;53.20;;;;;;5032622;28;20438;-66
2022/07/20 02:26:32;;;;;;;7.38;3.83;;;21.00;53.00;;;;;;5033290;28;20434;-65
2022/07/20 02:28:57;;;;;;;5.65;3.40;;;21.00;53.20;;;;;;5031806;28;20036;-66
2022/07/20 02:31:23;;;;;;;4.68;3.40;;;21.00;53.50;;;;;;5032782;28;20022;-65
2022/07/20 02:33:50;;;;;;;5.05;3.47;;;21.00;53.70;;;;;;5032571;28;20087;-66
2022/07/20 02:36:17;;;;;;;9.27;3.83;;;21.00;53.90;;;;;;5032226;28;20022;-66
2022/07/20 02:38:43;;;;;;;4.82;3.35;;;21.00;52.80;;;;;;5030607;28;20055;-66
2022/07/20 02:41:08;;;;;;;6.00;3.13;;;21.00;53.10;;;;;;5032735;28;20437;-65
2022/07/20 02:43:34;;;;;;;6.00;3.42;;;21.00;52.20;;;;;;5014896;28;20092;-67
2022/07/20 02:46:00;;;;;;;10.10;3.38;;;21.10;52.60;;;;;;5032400;28;20033;-65
2022/07/20 02:48:25;;;;;;;7.53;3.40;;;21.10;52.30;;;;;;5031683;28;20112;-66
2022/07/20 02:50:51;;;;;;;7.57;3.50;;;21.10;52.20;;;;;;5032151;28;20033;-67
2022/07/20 02:53:17;;;;;;;4.50;3.05;;;21.00;52.10;;;;;;5030400;28;20057;-66
2022/07/20 02:55:43;;;;;;;7.90;3.60;;;21.00;52.30;;;;;;5032175;28;20480;-68
2022/07/20 02:58:10;;;;;;;13.15;3.85;;;21.00;52.50;;;;;;5031606;28;20018;-66
2022/07/20 03:00:37;;;;;;;5.80;3.15;;;21.00;52.60;;;;;;5032010;28;20022;-65
2022/07/20 03:03:03;;;;;;;10.40;3.15;;;20.90;52.40;;;;;;5032059;28;20044;-66
2022/07/20 03:05:29;;;;;;;8.40;3.60;;;20.90;52.50;;;;;;5031911;28;20025;-66
2022/07/20 03:07:55;;;;;;;6.90;3.88;;;20.90;52.50;;;;;;5013716;28;20033;-66
2022/07/20 03:10:21;;;;;;;165.20;89.07;;;21.00;52.60;;;;;;5032092;28;20052;-67
2022/07/20 03:12:47;;;;;;;9.93;3.70;;;21.00;54.00;;;;;;5031999;28;20029;-67
2022/07/20 03:15:12;;;;;;;8.93;3.88;;;21.00;52.40;;;;;;5030071;28;20468;-66
2022/07/20 03:17:42;;;;;;;122.50;67.13;;;21.00;52.30;;;;;;5031006;28;20472;-66
2022/07/20 03:20:09;;;;;;;51.00;24.95;;;21.00;52.40;;;;;;5031673;28;20059;-66
2022/07/20 03:22:35;;;;;;;14.68;6.68;;;21.00;52.90;;;;;;5031681;28;20108;-65
2022/07/20 03:25:00;;;;;;;10.13;4.90;;;21.10;52.40;;;;;;5014125;28;20022;-67
2022/07/20 03:27:26;;;;;;;5.90;3.60;;;21.10;52.40;;;;;;5031030;28;20021;-67
2022/07/20 03:29:51;;;;;;;6.15;3.58;;;21.10;52.20;;;;;;5031542;28;20025;-66
2022/07/20 03:32:17;;;;;;;7.57;3.60;;;21.10;52.50;;;;;;5031316;28;20124;-66
2022/07/20 03:34:43;;;;;;;5.20;3.13;;;21.10;52.30;;;;;;5031923;28;20064;-66
2022/07/20 03:37:08;;;;;;;8.70;3.42;;;21.20;52.90;;;;;;5029121;28;20091;-66
2022/07/20 03:39:34;;;;;;;5.35;3.40;;;21.30;53.10;;;;;;5031547;28;20029;-66
2022/07/20 03:41:59;;;;;;;7.00;3.50;;;21.40;53.00;;;;;;5031415;28;20103;-66
2022/07/20 03:44:25;;;;;;;7.60;3.40;;;21.40;52.20;;;;;;5031320;28;20032;-67
2022/07/20 03:46:50;;;;;;;8.25;4.03;;;21.50;52.90;;;;;;5031204;28;20040;-67
2022/07/20 03:49:16;;;;;;;10.98;3.83;;;21.60;53.60;;;;;;5029792;28;20091;-67
2022/07/20 03:51:41;;;;;;;7.60;4.45;;;21.80;53.20;;;;;;5031275;28;20430;-66
2022/07/20 03:54:07;;;;;;;5.95;3.63;;;22.00;53.20;;;;;;5031411;28;20061;-65
2022/07/20 03:56:33;;;;;;;9.88;4.25;;;22.30;52.60;;;;;;5031074;28;20025;-66
2022/07/20 03:58:59;;;;;;;7.28;3.72;;;22.60;51.90;;;;;;5030499;28;20022;-65
2022/07/20 04:01:25;;;;;;;5.72;3.33;;;23.00;50.70;;;;;;5031174;28;20324;-66
2022/07/20 04:03:50;;;;;;;6.18;3.85;;;23.40;50.00;;;;;;5031113;28;20017;-66
2022/07/20 04:06:16;;;;;;;7.25;3.47;;;24.00;48.60;;;;;;5031059;28;20386;-66
2022/07/20 04:08:42;;;;;;;7.15;3.40;;;24.60;46.30;;;;;;5030511;28;20025;-66
2022/07/20 04:11:07;;;;;;;9.60;4.13;;;24.80;45.90;;;;;;5031025;28;20484;-64
2022/07/20 04:13:33;;;;;;;8.32;3.97;;;25.00;45.60;;;;;;5031093;28;20327;-67
2022/07/20 04:15:58;;;;;;;8.32;3.67;;;25.30;45.00;;;;;;5013256;28;20332;-66
2022/07/20 04:18:24;;;;;;;10.30;4.20;;;25.50;44.90;;;;;;5028558;28;20037;-67
2022/07/20 04:20:50;;;;;;;7.32;3.90;;;26.00;44.00;;;;;;5031024;28;20554;-66
2022/07/20 04:23:15;;;;;;;6.07;3.80;;;26.60;42.80;;;;;;5031062;28;20029;-66
2022/07/20 04:25:41;;;;;;;10.50;4.05;;;27.20;41.30;;;;;;5031190;28;20021;-66
2022/07/20 04:28:06;;;;;;;7.70;3.80;;;27.80;39.90;;;;;;5030291;28;20069;-65
2022/07/20 04:30:34;;;;;;;8.00;3.92;;;28.00;39.60;;;;;;5031082;28;20029;-67
2022/07/20 04:33:00;;;;;;;6.22;3.55;;;28.40;38.30;;;;;;5053380;22;20065;-67
2022/07/20 04:35:25;;;;;;;7.97;3.78;;;28.90;37.80;;;;;;5030896;28;20480;-66
2022/07/20 04:37:51;;;;;;;5.90;3.90;;;29.40;36.90;;;;;;5029806;28;20021;-66
2022/07/20 04:40:17;;;;;;;9.05;3.78;;;29.30;36.30;;;;;;5030829;28;20032;-66
2022/07/20 04:42:42;;;;;;;9.10;3.08;;;29.20;37.30;;;;;;5030645;28;20039;-66
2022/07/20 04:45:09;;;;;;;7.72;3.85;;;30.10;36.00;;;;;;5031057;28;20040;-67
2022/07/20 04:47:35;;;;;;;6.50;3.42;;;30.50;35.10;;;;;;5030423;28;20029;-67
2022/07/20 04:50:00;;;;;;;11.57;3.53;;;31.10;34.50;;;;;;5030884;28;20029;-68
2022/07/20 04:52:26;;;;;;;9.38;3.28;;;31.40;33.70;;;;;;5030613;28;20037;-68
2022/07/20 04:54:51;;;;;;;6.68;3.35;;;31.40;34.00;;;;;;5030794;28;20021;-69
2022/07/20 04:57:17;;;;;;;6.72;3.30;;;31.70;33.30;;;;;;5029327;28;20029;-67
2022/07/20 04:59:43;;;;;;;6.45;3.45;;;31.70;33.00;;;;;;5031123;28;20032;-68
2022/07/20 05:02:08;;;;;;;8.35;3.95;;;31.70;32.70;;;;;;5034207;28;20033;-68
2022/07/20 05:04:34;;;;;;;8.70;3.60;;;31.90;32.70;;;;;;5034453;28;20021;-69
2022/07/20 05:07:00;;;;;;;11.07;3.72;;;31.50;32.20;;;;;;5034013;28;20096;-68
2022/07/20 05:09:26;;;;;;;7.55;3.35;;;30.80;32.50;;;;;;5034637;28;20025;-69
2022/07/20 05:11:52;;;;;;;6.00;3.40;;;30.80;33.50;;;;;;5016733;28;20025;-69
2022/07/20 05:14:17;;;;;;;11.18;3.33;;;30.70;32.90;;;;;;5034993;28;20026;-68
2022/07/20 05:16:43;;;;;;;8.48;3.25;;;31.00;33.60;;;;;;5042869;28;20036;-67
2022/07/20 05:19:09;;;;;;;7.97;3.67;;;31.80;31.30;;;;;;5042332;28;20022;-68
2022/07/20 05:21:35;;;;;;;14.02;3.95;;;31.50;31.40;;;;;;5041105;28;20018;-67
2022/07/20 05:24:00;;;;;;;12.27;3.50;;;31.60;33.00;;;;;;5047558;28;20040;-68
2022/07/20 05:26:26;;;;;;;7.97;4.28;;;32.40;30.90;;;;;;5045158;28;20086;-68
2022/07/20 05:28:52;;;;;;;10.27;3.22;;;33.40;30.30;;;;;;5043136;28;20045;-68
2022/07/20 05:31:18;;;;;;;11.57;3.40;;;33.30;28.60;;;;;;5044463;28;20438;-68
2022/07/20 05:33:44;;;;;;;7.85;3.28;;;33.60;28.50;;;;;;5040159;28;20087;-67
2022/07/20 05:36:10;;;;;;;10.18;3.00;;;33.80;28.30;;;;;;5018526;28;20128;-69
2022/07/20 05:38:36;;;;;;;13.00;3.17;;;34.20;27.10;;;;;;5033626;28;20060;-68
2022/07/20 05:41:02;;;;;;;12.02;2.83;;;34.00;27.10;;;;;;5034456;28;20402;-68
2022/07/20 05:43:28;;;;;;;14.52;3.25;;;35.00;25.80;;;;;;5014767;28;20025;-70
2022/07/20 05:45:54;;;;;;;10.18;3.08;;;35.00;25.80;;;;;;5034180;28;20029;-68
2022/07/20 05:48:20;;;;;;;13.82;3.42;;;34.70;26.10;;;;;;5015149;28;20029;-67
2022/07/20 05:50:46;;;;;;;12.38;3.35;;;34.40;26.50;;;;;;5033965;28;20033;-68
2022/07/20 05:53:12;;;;;;;9.18;2.50;;;34.20;26.40;;;;;;5033628;28;20024;-68
2022/07/20 05:55:39;;;;;;;5.60;2.53;;;33.90;27.00;;;;;;5033482;28;20490;-68
2022/07/20 05:58:06;;;;;;;7.00;2.95;;;33.90;27.00;;;;;;5029158;28;20556;-68
2022/07/20 06:00:33;;;;;;;10.63;3.65;;;33.30;28.00;;;;;;5030258;28;20455;-72
2022/07/20 06:02:59;;;;;;;5.72;2.75;;;33.60;27.90;;;;;;5031027;28;20100;-71
2022/07/20 06:05:25;;;;;;;11.20;3.08;;;34.30;27.00;;;;;;5031342;28;20564;-70
2022/07/20 06:07:54;;;;;;;5.28;2.95;;;34.00;26.90;;;;;;5030371;28;20009;-70
2022/07/20 06:10:19;;;;;;;7.93;3.05;;;33.40;27.70;;;;;;5031122;28;20029;-70
2022/07/20 06:12:45;;;;;;;9.07;3.05;;;33.40;28.50;;;;;;5014040;28;20056;-70
2022/07/20 06:15:10;;;;;;;12.00;3.35;;;33.80;27.40;;;;;;5033000;28;20026;-70
2022/07/20 06:17:38;;;;;;;10.55;3.30;;;33.90;27.50;;;;;;5032049;28;20092;-70
2022/07/20 06:20:10;;;;;;;11.00;3.47;;;34.50;27.00;;;;;;5032841;28;20018;-70
2022/07/20 06:22:40;;;;;;;13.82;3.70;;;34.10;27.20;;;;;;5033051;28;20034;-70
2022/07/20 06:25:07;;;;;;;8.43;3.37;;;34.00;27.50;;;;;;5032453;28;20030;-68
2022/07/20 06:27:33;;;;;;;6.20;2.97;;;34.40;27.40;;;;;;5031855;28;20267;-67
2022/07/20 06:29:59;;;;;;;12.13;3.78;;;34.90;26.90;;;;;;5032297;28;20037;-66
2022/07/20 06:32:26;;;;;;;10.35;3.25;;;35.90;25.80;;;;;;5032163;28;20049;-68
2022/07/20 06:34:52;;;;;;;10.45;2.80;;;37.40;24.60;;;;;;5014866;28;20021;-68
2022/07/20 06:37:18;;;;;;;10.82;3.17;;;38.20;22.90;;;;;;5031868;28;20040;-66
2022/07/20 06:39:44;;;;;;;15.82;3.10;;;38.70;22.60;;;;;;5032037;28;20121;-67
2022/07/20 06:42:10;;;;;;;11.23;3.15;;;38.80;22.30;;;;;;5014271;28;20053;-68
2022/07/20 06:44:36;;;;;;;10.60;3.10;;;37.90;22.80;;;;;;5032110;28;20036;-67
2022/07/20 06:47:02;;;;;;;7.68;3.28;;;37.70;23.00;;;;;;5031938;28;20076;-69
2022/07/20 06:49:27;;;;;;;10.82;2.97;;;37.80;23.20;;;;;;5032255;28;20026;-66
2022/07/20 06:51:54;;;;;;;10.90;3.20;;;37.10;23.80;;;;;;5014594;28;20032;-67
2022/07/20 06:54:19;;;;;;;9.85;2.70;;;35.90;25.00;;;;;;5032143;28;20064;-67
2022/07/20 06:56:45;;;;;;;8.20;2.75;;;36.20;24.60;;;;;;5032580;28;20049;-67
2022/07/20 06:59:11;;;;;;;8.45;2.90;;;35.80;25.20;;;;;;5031855;28;20025;-67
2022/07/20 07:01:37;;;;;;;8.23;2.60;;;36.40;25.00;;;;;;5033151;28;20035;-67
2022/07/20 07:04:03;;;;;;;6.97;2.97;;;36.30;24.90;;;;;;5032434;28;20018;-67
2022/07/20 07:06:30;;;;;;;7.10;3.50;;;36.50;24.60;;;;;;5032101;28;20033;-65
2022/07/20 07:08:57;;;;;;;10.88;3.35;;;36.40;24.60;;;;;;5031356;28;20427;-67
2022/07/20 07:11:23;;;;;;;7.28;3.38;;;35.40;25.90;;;;;;5032128;28;20024;-67
2022/07/20 07:13:49;;;;;;;7.70;2.83;;;35.30;26.20;;;;;;5032047;28;20029;-66
2022/07/20 07:16:14;;;;;;;7.30;3.10;;;35.90;25.90;;;;;;5031804;28;20456;-67
2022/07/20 07:18:40;;;;;;;9.98;3.53;;;36.80;25.00;;;;;;5030698;28;20026;-68
2022/07/20 07:21:05;;;;;;;5.60;3.05;;;37.60;24.10;;;;;;5031493;28;20506;-67
2022/07/20 07:23:31;;;;;;;7.07;2.85;;;38.20;23.70;;;;;;5031310;28;20479;-67
2022/07/20 07:25:56;;;;;;;11.43;2.58;;;38.50;23.30;;;;;;5031551;28;20104;-68
2022/07/20 07:28:22;;;;;;;15.13;3.15;;;39.50;22.20;;;;;;5030447;28;20380;-67
2022/07/20 07:30:51;;;;;;;8.60;3.00;;;39.30;22.00;;;;;;5031559;28;20093;-66
2022/07/20 07:33:19;;;;;;;5.45;2.63;;;38.80;22.10;;;;;;5031350;28;20026;-67
2022/07/20 07:35:45;;;;;;;8.15;2.65;;;38.30;22.80;;;;;;5031162;28;20017;-67
2022/07/20 07:38:11;;;;;;;7.40;3.33;;;39.10;22.50;;;;;;5030852;28;20474;-67
2022/07/20 07:40:36;;;;;;;7.45;2.50;;;39.50;21.80;;;;;;5031204;28;20105;-67
2022/07/20 07:43:02;;;;;;;8.63;3.05;;;40.00;21.30;;;;;;5031522;28;20140;-67
2022/07/20 07:45:28;;;;;;;8.02;2.75;;;39.20;22.10;;;;;;5031294;28;20530;-66
2022/07/20 07:47:53;;;;;;;5.50;2.55;;;39.30;22.00;;;;;;5030675;28;20026;-67
2022/07/20 07:50:19;;;;;;;7.07;2.50;;;39.90;21.30;;;;;;5030977;28;20037;-67
2022/07/20 07:52:44;;;;;;;11.60;3.10;;;39.40;22.00;;;;;;5031188;28;20117;-67
2022/07/20 07:55:10;;;;;;;7.43;2.97;;;39.80;22.20;;;;;;5031243;28;20025;-67
2022/07/20 07:57:36;;;;;;;9.60;2.83;;;40.00;21.60;;;;;;5030539;28;20033;-68
2022/07/20 08:00:04;;;;;;;9.95;2.67;;;40.60;21.20;;;;;;5013122;28;20032;-68
2022/07/20 08:02:30;;;;;;;9.98;2.50;;;41.00;20.50;;;;;;5030979;28;20029;-67
2022/07/20 08:04:55;;;;;;;11.30;3.40;;;40.00;21.30;;;;;;5030778;28;20498;-66
2022/07/20 08:07:21;;;;;;;9.00;2.97;;;39.50;21.90;;;;;;5030708;28;20032;-70
2022/07/20 08:09:46;;;;;;;9.48;2.60;;;38.90;22.60;;;;;;5033804;28;20440;-69
2022/07/20 08:12:15;;;;;;;9.30;2.40;;;38.80;23.20;;;;;;5046322;28;20428;-75
2022/07/20 08:14:40;;;;;;;10.07;5.40;;;38.10;23.40;;;;;;5038400;28;20472;-76
2022/07/20 08:17:06;;;;;;;8.07;4.07;;;38.10;24.00;;;;;;5013403;28;20028;-77
2022/07/20 08:19:32;;;;;;;10.38;2.95;;;39.00;23.30;;;;;;5031439;28;20079;-76
2022/07/20 08:21:57;;;;;;;5.88;3.15;;;39.00;22.50;;;;;;5031200;28;20029;-76
2022/07/20 08:24:23;;;;;;;9.85;2.75;;;38.10;23.20;;;;;;5031093;28;20037;-75
2022/07/20 08:26:53;;;;;;;12.43;3.17;;;38.30;23.40;;;;;;5030985;28;20033;-76
2022/07/20 08:29:18;;;;;;;8.95;2.47;;;38.10;23.00;;;;;;5030642;28;20034;-74
2022/07/20 08:31:44;;;;;;;16.95;3.05;;;38.10;23.50;;;;;;5030931;28;22036;-76
2022/07/20 08:34:10;;;;;;;8.52;3.00;;;37.90;23.40;;;;;;5030625;28;20056;-78
2022/07/20 08:36:35;;;;;;;9.18;2.78;;;38.10;23.40;;;;;;5031315;28;20017;-71
2022/07/20 08:39:05;;;;;;;8.25;2.60;;;38.20;23.10;;;;;;5030689;28;20025;-77
2022/07/20 08:41:33;;;;;;;7.07;2.85;;;38.40;23.10;;;;;;5034584;28;20013;-77
2022/07/20 08:45:08;;;;;;;;;;;;;;;;;;;;;
2022/07/20 08:50:52;;;;;;;7.10;2.67;;;39.50;21.80;;;;;;4972666;28;20148;-67
2022/07/20 08:53:19;;;;;;;4.35;2.35;;;39.50;21.30;;;;;;5021879;28;20041;-79
2022/07/20 08:55:45;;;;;;;4.22;2.25;;;40.00;20.90;;;;;;5017073;28;20028;-78
2022/07/20 08:58:11;;;;;;;9.60;3.22;;;40.10;20.40;;;;;;5015739;23;20456;-71
2022/07/20 09:00:37;;;;;;;8.65;2.58;;;39.70;20.50;;;;;;5014857;28;20033;-72
2022/07/20 09:03:06;;;;;;;6.72;2.65;;;39.10;21.60;;;;;;5014592;28;20124;-74
2022/07/20 09:05:38;;;;;;;9.27;3.17;;;39.00;21.80;;;;;;5014712;28;20054;-69
2022/07/20 09:08:05;;;;;;;5.28;2.30;;;39.30;21.00;;;;;;5013923;28;20536;-75
2022/07/20 09:10:37;;;;;;;3.88;2.30;;;39.60;20.10;;;;;;5014508;28;20440;-73
2022/07/20 09:13:03;;;;;;;10.88;3.22;;;39.00;20.70;;;;;;5013177;28;20026;-76
2022/07/20 09:15:31;;;;;;;7.85;2.22;;;38.80;20.00;;;;;;5014355;28;20030;-73
2022/07/20 09:18:11;;;;;;;3.88;2.25;;;38.60;19.30;;;;;;4994910;28;20468;-71
2022/07/20 09:20:43;;;;;;;13.48;2.83;;;39.00;19.20;;;;;;4996422;28;20030;-73
2022/07/20 09:23:17;;;;;;;6.55;2.65;;;39.30;18.90;;;;;;5013818;28;20026;-72
2022/07/20 09:26:03;;;;;;;8.52;3.45;;;38.80;19.00;;;;;;5014212;28;20022;-71
2022/07/20 09:28:35;;;;;;;9.48;6.13;;;38.90;19.30;;;;;;4995634;28;20026;-71
2022/07/20 09:31:01;;;;;;;8.50;4.00;;;39.40;19.00;;;;;;5013982;28;20029;-72
2022/07/20 09:33:29;;;;;;;7.13;2.53;;;40.20;17.90;;;;;;5014029;28;20022;-70
2022/07/20 09:35:56;;;;;;;48.45;34.83;;;39.60;18.50;;;;;;5014122;28;20029;-71
2022/07/20 09:38:40;;;;;;;17.67;11.13;;;39.40;19.00;;;;;;5012989;28;20022;-71
2022/07/20 09:41:30;;;;;;;4.35;2.53;;;39.70;18.50;;;;;;5014116;28;20026;-72
2022/07/20 09:44:01;;;;;;;13.70;8.05;;;38.90;18.60;;;;;;5012371;28;20030;-73
2022/07/20 09:46:32;;;;;;;7.60;2.55;;;38.40;19.30;;;;;;5013582;28;20120;-73
2022/07/20 09:49:04;;;;;;;7.93;3.53;;;38.50;19.10;;;;;;4993955;28;20073;-72
2022/07/20 09:51:38;;;;;;;6.28;2.15;;;38.10;19.50;;;;;;4995281;28;20030;-71
2022/07/20 09:54:06;;;;;;;20.70;13.88;;;37.90;19.30;;;;;;4994123;28;20026;-73
2022/07/20 09:56:34;;;;;;;8.82;3.90;;;38.20;20.00;;;;;;4994566;28;20030;-74
2022/07/20 09:59:02;;;;;;;43.00;29.90;;;38.80;18.90;;;;;;4995352;28;20399;-73
2022/07/20 10:01:30;;;;;;;35.38;25.92;;;39.30;18.90;;;;;;4995062;28;20023;-74
2022/07/20 10:03:57;;;;;;;44.05;29.33;;;39.60;18.60;;;;;;4994541;28;20054;-74
2022/07/20 10:06:25;;;;;;;42.70;30.50;;;39.60;18.70;;;;;;4994592;28;20034;-74
2022/07/20 10:08:51;;;;;;;6.47;2.40;;;39.50;18.70;;;;;;4994068;28;20026;-72
2022/07/20 10:11:19;;;;;;;8.60;3.03;;;39.50;18.20;;;;;;4977214;28;20084;-75
2022/07/20 10:13:45;;;;;;;4.80;2.22;;;39.10;18.60;;;;;;4994416;28;20054;-75
2022/07/20 10:16:15;;;;;;;7.18;2.38;;;38.90;18.80;;;;;;4994250;28;20101;-74
2022/07/20 10:18:44;;;;;;;4.35;2.38;;;37.80;19.80;;;;;;4993881;28;20030;-74
2022/07/20 10:21:43;;;;;;;5.50;2.10;;;37.10;20.50;;;;;;4994991;28;20041;-73
2022/07/20 10:24:19;;;;;;;11.73;7.35;;;36.90;20.90;;;;;;4991448;28;20052;-75
2022/07/20 10:26:46;;;;;;;9.15;4.90;;;37.00;21.00;;;;;;4976866;28;20497;-75
2022/07/20 10:29:34;;;;;;;10.30;5.45;;;37.10;20.80;;;;;;4993903;28;20034;-75
2022/07/20 10:32:09;;;;;;;8.80;5.65;;;37.20;21.00;;;;;;4977992;28;20030;-74
2022/07/20 10:34:38;;;;;;;6.60;2.30;;;37.60;20.70;;;;;;4994166;28;20496;-75
2022/07/20 10:37:38;;;;;;;5.88;2.53;;;37.70;20.00;;;;;;4976786;28;20030;-73
2022/07/20 10:40:12;;;;;;;7.70;2.95;;;36.80;20.50;;;;;;4993985;28;20558;-74
2022/07/20 10:42:45;;;;;;;10.70;2.72;;;36.10;21.10;;;;;;4994516;28;20041;-74
2022/07/20 10:45:19;;;;;;;9.23;3.10;;;36.00;21.50;;;;;;4991627;28;20026;-72
2022/07/20 10:47:44;;;;;;;6.45;2.72;;;36.30;21.20;;;;;;5002267;28;20534;-73
2022/07/20 10:50:31;;;;;;;5.85;2.22;;;36.00;21.50;;;;;;5012990;28;20030;-73
2022/07/20 10:53:10;;;;;;;7.13;3.47;;;35.90;21.30;;;;;;5012164;28;20496;-72
2022/07/20 10:55:36;;;;;;;5.93;3.08;;;36.10;21.70;;;;;;4994894;28;20030;-73
2022/07/20 10:58:01;;;;;;;4.97;2.97;;;36.00;21.50;;;;;;5011697;28;20041;-73
2022/07/20 11:00:34;;;;;;;5.10;2.88;;;36.00;21.40;;;;;;5012810;28;20056;-71
2022/07/20 11:03:11;;;;;;;7.55;2.80;;;36.10;21.50;;;;;;5012929;28;20026;-73
2022/07/20 11:05:38;;;;;;;7.63;2.83;;;36.20;21.60;;;;;;4995239;28;20029;-70
2022/07/20 11:08:08;;;;;;;6.30;3.58;;;36.20;21.40;;;;;;5012083;28;20022;-75
2022/07/20 11:10:34;;;;;;;8.88;2.92;;;36.30;21.60;;;;;;5012313;28;20033;-74
2022/07/20 11:13:06;;;;;;;9.10;3.70;;;36.40;21.70;;;;;;4995309;28;20033;-73
2022/07/20 11:15:38;;;;;;;20.55;4.10;;;36.20;21.80;;;;;;5012526;28;20054;-75
2022/07/20 11:18:07;;;;;;;7.15;3.30;;;35.90;21.80;;;;;;4993863;28;20026;-74
2022/07/20 11:20:32;;;;;;;7.63;3.47;;;36.00;21.70;;;;;;5012343;28;20085;-74
2022/07/20 11:23:00;;;;;;;10.55;2.90;;;36.00;21.50;;;;;;5012223;28;20045;-75
2022/07/20 11:25:28;;;;;;;15.65;3.55;;;35.60;21.10;;;;;;4994716;28;20199;-73
2022/07/20 11:28:02;;;;;;;9.88;3.25;;;35.40;21.70;;;;;;4993885;28;20025;-73
2022/07/20 11:30:35;;;;;;;8.15;2.47;;;35.40;22.10;;;;;;5012230;28;20022;-73
2022/07/20 11:33:00;;;;;;;7.00;3.17;;;35.40;21.50;;;;;;5012252;28;20037;-74
2022/07/20 11:35:26;;;;;;;7.80;3.55;;;35.40;22.40;;;;;;5012201;28;20056;-72
2022/07/20 11:37:53;;;;;;;5.97;3.33;;;35.50;22.70;;;;;;5011691;28;20026;-73
2022/07/20 11:40:20;;;;;;;6.32;2.75;;;35.50;21.70;;;;;;5012303;28;20096;-73
2022/07/20 11:43:05;;;;;;;11.90;4.32;;;35.60;21.30;;;;;;4994217;28;20092;-73
2022/07/20 11:45:31;;;;;;;5.25;3.25;;;35.60;22.00;;;;;;5012070;28;20418;-74
2022/07/20 11:47:56;;;;;;;7.88;3.13;;;35.60;21.20;;;;;;5011268;28;20022;-74
2022/07/20 11:50:30;;;;;;;3.92;2.47;;;35.60;20.60;;;;;;5011951;28;20022;-73
2022/07/20 11:52:55;;;;;;;7.65;3.30;;;35.50;20.90;;;;;;5011875;28;20381;-74
2022/07/20 11:55:36;;;;;;;12.43;3.20;;;35.30;22.00;;;;;;5011675;28;20037;-74
2022/07/20 11:58:02;;;;;;;;;;;35.40;22.30;;;;;;5011578;28;20041;-75
2022/07/20 12:00:29;;;;;;;7.20;2.78;;;35.40;22.20;;;;;;4994137;28;19996;-72
2022/07/20 12:02:55;;;;;;;7.10;2.78;;;35.40;21.80;;;;;;5011795;28;20411;-71
2022/07/20 12:05:21;;;;;;;7.20;3.40;;;35.30;21.70;;;;;;5011618;28;20037;-72
2022/07/20 12:10:33;;;;;;;6.28;2.83;;;35.40;21.70;;;;;;5013353;28;20021;-72
2022/07/20 12:13:03;;;;;;;4.88;2.58;;;35.50;21.60;;;;;;5016071;28;20040;-72
2022/07/20 12:15:29;;;;;;;12.60;2.95;;;35.50;21.70;;;;;;4998600;28;20057;-70
2022/07/20 12:17:55;;;;;;;5.63;2.55;;;35.40;21.60;;;;;;5014472;28;20080;-72
2022/07/20 12:20:22;;;;;;;7.60;2.80;;;35.50;21.90;;;;;;5015375;28;20061;-72
2022/07/20 12:22:59;;;;;;;5.30;2.05;;;35.50;21.40;;;;;;4997454;28;20025;-73
2022/07/20 12:25:40;;;;;;;5.47;2.00;;;35.40;21.10;;;;;;5015227;28;20045;-74
2022/07/20 12:28:06;;;;;;;6.25;3.22;;;35.20;21.90;;;;;;4996727;28;20021;-72
2022/07/20 12:30:37;;;;;;;6.53;2.75;;;35.20;21.10;;;;;;5015129;28;20018;-73
2022/07/20 12:33:15;;;;;;;6.55;2.17;;;35.30;20.90;;;;;;5015215;28;20105;-74
2022/07/20 12:35:44;;;;;;;7.97;2.72;;;35.10;21.70;;;;;;5015278;28;20048;-74
2022/07/20 12:38:11;;;;;;;6.68;2.83;;;35.20;22.00;;;;;;5014251;28;20026;-74
2022/07/20 12:40:46;;;;;;;8.57;2.45;;;35.30;21.60;;;;;;5015050;28;20080;-74
2022/07/20 12:43:33;;;;;;;9.82;2.50;;;35.20;22.00;;;;;;5013346;28;20025;-73
2022/07/20 12:46:13;;;;;;;9.57;2.90;;;35.30;22.40;;;;;;5015300;28;20056;-74
2022/07/20 12:48:41;;;;;;;8.88;2.75;;;35.30;22.30;;;;;;5014093;28;20034;-75
2022/07/20 12:51:09;;;;;;;10.45;3.13;;;35.30;22.30;;;;;;4997428;28;20029;-75
2022/07/20 12:53:36;;;;;;;11.85;3.10;;;35.30;21.10;;;;;;5015167;28;20108;-73
2022/07/20 12:56:03;;;;;;;6.53;2.95;;;35.30;21.30;;;;;;4997688;28;20038;-74
2022/07/20 12:58:29;;;;;;;9.10;2.75;;;35.30;21.50;;;;;;5013672;28;20042;-74